Airfield :
LOGIN :

Register | Disclaimer

   EN    FR    IT 

 










Legend :    VFR   Marginal VFR   IFR   Intensive IFR   Very Intensive IFR
Visi :
Ceiling :
>= 8 km
>= 3000ft
5 to 8 km
1000 to 3000 ft
1500m to 5 km
500 to 1000 ft
800 to 1500m
200 to 500 ft
< 800m
< 200 ft
Symbols :   Thunderstorms  Fog  Heavy snow  Heavy precipitations  Wind > 20 kt
SIGMETs :     Misc.  Thunderstorms  Icing  Turbulence  Mountain Waves  Volcanic Ashes







- Airport Elevation : 274 ft
- IATA code : PUY


LDPL - Pula

CURRENT METAR :
  • 212130Z 08004KT CAVOK 20/19 Q1013 NOSIG

EXPIRED METARs :
  • 212100Z 10004KT CAVOK 20/18 Q1013 NOSIG
  • 212030Z 11004KT CAVOK 20/18 Q1013 NOSIG
  • 212000Z 10004KT CAVOK 20/17 Q1013 NOSIG
  • 211930Z 09003KT CAVOK 20/16 Q1013 NOSIG
  • 211900Z VRB02KT CAVOK 22/16 Q1012 NOSIG

TAF TAF LDPL
Valid from the 21 at 18:00 until the 22 at 18:00 UTC


211725Z 2118/2218 VRB02KT CAVOK TX27/2118Z TN17/2211Z
PROB40
TEMPO 2203/2212 VRB15KT 4000 TSRA SCT030CB BKN035
BECMG 2207/2209 07015G25KT
No reported NOTAMs for that airfield.



MET'MAP, your aeronautical weather chart ! - Copyright ORBIFLY December 2007 - Disclaimer

ORBIFLY MET'MAP TEAM :

Programming & Development : Alexandra Zaïnal
Concept & Development : Baudouin d'Aumeries
Co-Development & Prog : Marc-Olivier Méhu
Technical & hardware support : Manuel Goepfert

Contact : metmap@orbifly.com




SOURCES & CREDITS :

   NOAA